Time;durP1;ratioP1;P1;durP2;ratioP2;P2;SDS_P1;SDS_P2;PMS_P1;PMS_P2;Temp;Humidity;BMP_temperature;BMP_pressure;BME280_temperature;BME280_humidity;BME280_pressure;Samples;Min_cycle;Max_cycle;Signal;HPM_P1;HPM_P2
2023/12/30 00:01:46;;;;;;;;;;;5.40;99.90;;;;;;5078054;28;19934;-89
2023/12/30 00:04:13;;;;;;;;;;;5.40;99.90;;;;;;5104823;28;20391;-88
2023/12/30 00:06:39;;;;;;;;;;;5.30;99.90;;;;;;5082053;28;19926;-89
2023/12/30 00:09:04;;;;;;;;;;;5.40;99.90;;;;;;5081078;28;19966;-90
2023/12/30 00:11:30;;;;;;;;;;;5.30;99.90;;;;;;5086906;28;20078;-88
2023/12/30 00:13:56;;;;;;;;;;;5.30;99.90;;;;;;5081651;28;19970;-89
2023/12/30 00:16:21;;;;;;;;;;;5.20;99.90;;;;;;5079853;28;19969;-89
2023/12/30 00:18:47;;;;;;;;;;;5.20;99.90;;;;;;5079663;28;20238;-89
2023/12/30 00:21:17;;;;;;;;;;;5.30;99.90;;;;;;5117102;27;19931;-89
2023/12/30 00:23:43;;;;;;;;;;;5.20;99.90;;;;;;5093968;28;20326;-89
2023/12/30 00:26:17;;;;;;;;;;;5.30;99.90;;;;;;5075315;28;19976;-89
2023/12/30 00:28:43;;;;;;;;;;;5.30;99.90;;;;;;5083842;28;19973;-89
2023/12/30 00:31:18;;;;;;;;;;;5.30;99.90;;;;;;5098748;28;19924;-90
2023/12/30 00:33:44;;;;;;;;;;;5.30;99.90;;;;;;5103412;28;19975;-91
2023/12/30 00:36:10;;;;;;;;;;;5.30;99.90;;;;;;5088492;28;19999;-90
2023/12/30 00:38:35;;;;;;;;;;;5.30;99.90;;;;;;5095395;28;20010;-89
2023/12/30 00:41:01;;;;;;;;;;;5.30;99.90;;;;;;5093567;28;19923;-89
2023/12/30 00:43:26;;;;;;;;;;;5.30;99.90;;;;;;5083116;28;20300;-89
2023/12/30 00:45:52;;;;;;;;;;;5.30;99.90;;;;;;5088080;28;19927;-89
2023/12/30 00:48:18;;;;;;;;;;;5.30;99.90;;;;;;5071996;28;19946;-90
2023/12/30 00:50:43;;;;;;;;;;;5.40;99.90;;;;;;5090194;28;19927;-88
2023/12/30 00:53:09;;;;;;;;;;;5.40;99.90;;;;;;5078445;28;20006;-90
2023/12/30 00:55:34;;;;;;;;;;;5.30;99.90;;;;;;5102166;28;20299;-88
2023/12/30 00:58:00;;;;;;;;;;;5.30;99.90;;;;;;5072805;28;19969;-90
2023/12/30 01:00:26;;;;;;;;;;;5.30;99.90;;;;;;5098772;28;19931;-90
2023/12/30 01:02:51;;;;;;;;;;;5.80;99.90;;;;;;5076540;28;19984;-89
2023/12/30 01:05:17;;;;;;;;;;;5.30;99.90;;;;;;5085031;28;19931;-89
2023/12/30 01:07:43;;;;;;;;;;;5.30;99.90;;;;;;5108236;28;19967;-90
2023/12/30 01:10:08;;;;;;;;;;;5.30;99.90;;;;;;5071557;28;19974;-90
2023/12/30 01:12:34;;;;;;;;;;;5.30;99.90;;;;;;5077787;28;19920;-88
2023/12/30 01:14:59;;;;;;;;;;;5.30;99.90;;;;;;5085919;28;19981;-88
2023/12/30 01:17:25;;;;;;;;;;;5.30;99.90;;;;;;5099389;28;19920;-91
2023/12/30 01:19:51;;;;;;;;;;;5.30;99.90;;;;;;5140115;27;19928;-88
2023/12/30 01:22:16;;;;;;;;;;;5.30;99.90;;;;;;5075200;28;19976;-88
2023/12/30 01:24:42;;;;;;;;;;;5.30;99.90;;;;;;5087512;28;20081;-89
2023/12/30 01:27:08;;;;;;;;;;;5.30;99.90;;;;;;5105788;28;19932;-89
2023/12/30 01:29:34;;;;;;;;;;;5.30;99.90;;;;;;5107188;28;20042;-88
2023/12/30 01:31:59;;;;;;;;;;;5.30;99.90;;;;;;5113061;28;19946;-90
2023/12/30 01:34:25;;;;;;;;;;;5.30;99.90;;;;;;5076716;28;20011;-90
2023/12/30 01:36:51;;;;;;;;;;;5.30;99.90;;;;;;5085362;28;19928;-88
2023/12/30 01:39:17;;;;;;;;;;;5.30;99.90;;;;;;5095346;28;20336;-89
2023/12/30 01:41:42;;;;;;;;;;;5.30;99.90;;;;;;5084585;28;20367;-88
2023/12/30 01:44:08;;;;;;;;;;;5.30;99.90;;;;;;5071444;28;19931;-88
2023/12/30 01:46:36;;;;;;;;;;;5.30;99.90;;;;;;5069304;28;19946;-89
2023/12/30 01:49:02;;;;;;;;;;;5.30;99.90;;;;;;5088531;28;19924;-90
2023/12/30 01:51:28;;;;;;;;;;;5.30;99.90;;;;;;5077298;28;20464;-89
2023/12/30 01:53:55;;;;;;;;;;;5.30;99.90;;;;;;5078713;28;19924;-90
2023/12/30 01:56:21;;;;;;;;;;;5.30;99.90;;;;;;5108996;28;19955;-90
2023/12/30 01:58:48;;;;;;;;;;;5.30;99.90;;;;;;5110227;28;19930;-90
2023/12/30 02:01:15;;;;;;;;;;;5.30;99.90;;;;;;5092934;28;19923;-91
2023/12/30 02:03:41;;;;;;;;;;;5.40;99.90;;;;;;5093574;28;19920;-90
2023/12/30 02:06:07;;;;;;;;;;;5.40;99.90;;;;;;5077232;28;19967;-90
2023/12/30 02:08:32;;;;;;;;;;;5.40;99.90;;;;;;5084074;28;19960;-89
2023/12/30 02:10:58;;;;;;;;;;;5.40;99.90;;;;;;5081969;28;20486;-89
2023/12/30 02:13:24;;;;;;;;;;;5.50;99.90;;;;;;5090187;28;19937;-90
2023/12/30 02:15:49;;;;;;;;;;;5.50;99.90;;;;;;5087922;28;20015;-89
2023/12/30 02:18:15;;;;;;;;;;;5.50;99.90;;;;;;5088152;28;19931;-91
2023/12/30 02:20:40;;;;;;;;;;;5.60;99.90;;;;;;5076313;28;19993;-90
2023/12/30 02:23:06;;;;;;;;;;;5.70;99.90;;;;;;5083593;28;19920;-89
2023/12/30 02:25:31;;;;;;;;;;;5.70;99.90;;;;;;5091087;28;19982;-90
2023/12/30 02:27:57;;;;;;;;;;;5.60;99.90;;;;;;5092735;28;20295;-90
2023/12/30 02:30:24;;;;;;;;;;;5.60;99.90;;;;;;5082990;28;20002;-88
2023/12/30 02:32:49;;;;;;;;;;;5.70;99.90;;;;;;5075280;28;19928;-89
2023/12/30 02:35:15;;;;;;;;;;;5.80;99.90;;;;;;5089457;28;19924;-89
2023/12/30 02:37:41;;;;;;;;;;;5.80;99.90;;;;;;5097207;28;19953;-90
2023/12/30 02:40:07;;;;;;;;;;;5.80;99.90;;;;;;5078730;28;19930;-91
2023/12/30 02:42:32;;;;;;;;;;;5.80;99.90;;;;;;5075643;28;19931;-91
2023/12/30 02:44:58;;;;;;;;;;;5.90;99.90;;;;;;5074166;28;19931;-89
2023/12/30 02:47:23;;;;;;;;;;;5.90;99.90;;;;;;5092754;28;19920;-89
2023/12/30 02:49:49;;;;;;;;;;;5.90;99.90;;;;;;5073709;28;20062;-89
2023/12/30 02:52:14;;;;;;;;;;;6.00;99.90;;;;;;5096956;28;20268;-89
2023/12/30 02:54:40;;;;;;;;;;;6.00;99.90;;;;;;5086621;28;19978;-88
2023/12/30 02:57:06;;;;;;;;;;;6.00;99.90;;;;;;5107480;28;19923;-90
2023/12/30 02:59:32;;;;;;;;;;;6.00;99.90;;;;;;5094115;28;20380;-90
2023/12/30 03:01:57;;;;;;;;;;;6.00;99.90;;;;;;5069061;28;19976;-89
2023/12/30 03:04:23;;;;;;;;;;;6.00;99.90;;;;;;5075446;28;20018;-90
2023/12/30 03:06:49;;;;;;;;;;;6.00;99.90;;;;;;5104550;28;19930;-88
2023/12/30 03:09:14;;;;;;;;;;;6.10;99.90;;;;;;5082900;28;20261;-92
2023/12/30 03:11:40;;;;;;;;;;;6.10;99.90;;;;;;5084623;28;20007;-90
2023/12/30 03:14:06;;;;;;;;;;;6.10;99.90;;;;;;5135013;27;19923;-90
2023/12/30 03:16:32;;;;;;;;;;;6.20;99.90;;;;;;5091715;28;20366;-89
2023/12/30 03:18:57;;;;;;;;;;;6.20;99.90;;;;;;5116163;27;20379;-88
2023/12/30 03:21:23;;;;;;;;;;;6.20;99.90;;;;;;5080965;28;19920;-87
2023/12/30 03:23:48;;;;;;;;;;;6.20;99.90;;;;;;5086932;28;19949;-90
2023/12/30 03:26:14;;;;;;;;;;;6.20;99.90;;;;;;5124674;27;19924;-89
2023/12/30 03:28:40;;;;;;;;;;;6.30;99.90;;;;;;5089988;28;20289;-89
2023/12/30 03:31:07;;;;;;;;;;;6.30;99.90;;;;;;5074269;28;19927;-93
2023/12/30 03:33:32;;;;;;;;;;;6.30;99.90;;;;;;5116358;27;19953;-90
2023/12/30 03:35:58;;;;;;;;;;;6.40;99.90;;;;;;5068517;28;19947;-90
2023/12/30 03:38:24;;;;;;;;;;;6.70;99.90;;;;;;5075776;28;19985;-89
2023/12/30 03:40:50;;;;;;;;;;;6.40;99.90;;;;;;5091918;28;19928;-92
2023/12/30 03:43:16;;;;;;;;;;;6.40;99.90;;;;;;5075853;28;19920;-90
2023/12/30 03:45:41;;;;;;;;;;;6.40;99.90;;;;;;5093070;28;19920;-88
2023/12/30 03:48:07;;;;;;;;;;;6.40;99.90;;;;;;5077603;28;19942;-89
2023/12/30 03:50:33;;;;;;;;;;;6.40;99.90;;;;;;5108488;27;19981;-89
2023/12/30 03:53:02;;;;;;;;;;;6.40;99.90;;;;;;5092694;28;21573;-89
2023/12/30 03:55:27;;;;;;;;;;;6.40;99.90;;;;;;5104126;28;19930;-94
2023/12/30 03:57:53;;;;;;;;;;;6.40;99.90;;;;;;5073839;28;19920;-90
2023/12/30 04:00:19;;;;;;;;;;;6.30;99.90;;;;;;5082811;28;19981;-91
2023/12/30 04:02:47;;;;;;;;;;;6.30;99.90;;;;;;5076840;28;20467;-92
2023/12/30 04:05:12;;;;;;;;;;;6.30;99.90;;;;;;5072055;28;19955;-89
2023/12/30 04:07:38;;;;;;;;;;;6.30;99.90;;;;;;5078865;28;20302;-89
2023/12/30 04:10:04;;;;;;;;;;;6.30;99.90;;;;;;5090158;28;19920;-90
2023/12/30 04:12:31;;;;;;;;;;;6.30;99.90;;;;;;5085546;28;19962;-92
2023/12/30 04:14:57;;;;;;;;;;;6.30;99.90;;;;;;5084379;28;19920;-91
2023/12/30 04:17:22;;;;;;;;;;;6.30;99.90;;;;;;5073867;28;20254;-91
2023/12/30 04:19:48;;;;;;;;;;;6.30;99.90;;;;;;5089254;28;19920;-89
2023/12/30 04:22:13;;;;;;;;;;;6.30;99.90;;;;;;5122867;27;19920;-90
2023/12/30 04:24:39;;;;;;;;;;;6.20;99.90;;;;;;5108170;28;20172;-92
2023/12/30 04:27:05;;;;;;;;;;;6.20;99.90;;;;;;5087781;28;19923;-90
2023/12/30 04:29:30;;;;;;;;;;;6.10;99.90;;;;;;5089402;28;19935;-91
2023/12/30 04:31:56;;;;;;;;;;;6.10;99.90;;;;;;5076361;28;19931;-93
2023/12/30 04:34:22;;;;;;;;;;;6.00;99.90;;;;;;5072424;28;19920;-90
2023/12/30 04:36:48;;;;;;;;;;;6.00;99.90;;;;;;5083680;28;19920;-90
2023/12/30 04:39:13;;;;;;;;;;;6.00;99.90;;;;;;5110275;28;19920;-89
2023/12/30 04:41:40;;;;;;;;;;;6.10;99.90;;;;;;5104385;28;19920;-89
2023/12/30 04:44:05;;;;;;;;;;;6.10;99.90;;;;;;5118211;27;19946;-90
2023/12/30 04:46:31;;;;;;;;;;;6.20;99.90;;;;;;5072217;28;19924;-90
2023/12/30 04:49:01;;;;;;;;;;;6.10;99.90;;;;;;5067562;28;20415;-90
2023/12/30 04:51:26;;;;;;;;;;;6.20;99.90;;;;;;5076508;28;19924;-90
2023/12/30 04:53:52;;;;;;;;;;;6.20;99.90;;;;;;5076897;28;20019;-90
2023/12/30 04:56:18;;;;;;;;;;;6.20;99.90;;;;;;5080109;28;19926;-90
2023/12/30 04:58:43;;;;;;;;;;;6.30;99.90;;;;;;5089767;28;19923;-89
2023/12/30 05:01:09;;;;;;;;;;;6.30;99.90;;;;;;5086258;28;19920;-90
2023/12/30 05:03:35;;;;;;;;;;;6.30;99.90;;;;;;5121058;27;19934;-89
2023/12/30 05:06:02;;;;;;;;;;;6.30;99.90;;;;;;5082403;28;20143;-89
2023/12/30 05:08:27;;;;;;;;;;;6.30;99.90;;;;;;5120506;27;19985;-89
2023/12/30 05:10:53;;;;;;;;;;;6.40;99.90;;;;;;5105006;27;20352;-89
2023/12/30 05:13:19;;;;;;;;;;;6.40;99.90;;;;;;5088037;28;19930;-90
2023/12/30 05:15:45;;;;;;;;;;;6.40;99.90;;;;;;5076715;28;19924;-91
2023/12/30 05:18:11;;;;;;;;;;;6.30;99.90;;;;;;5142284;27;19931;-90
2023/12/30 05:20:37;;;;;;;;;;;6.30;99.90;;;;;;5102576;28;20033;-91
2023/12/30 05:23:02;;;;;;;;;;;6.30;99.90;;;;;;5087564;28;19931;-90
2023/12/30 05:25:28;;;;;;;;;;;6.30;99.90;;;;;;5080662;28;20003;-90
2023/12/30 05:27:54;;;;;;;;;;;5.50;99.90;;;;;;5086355;27;19937;-90
2023/12/30 05:30:20;;;;;;;;;;;6.30;99.90;;;;;;5090482;27;19945;-91
2023/12/30 05:32:46;;;;;;;;;;;6.40;99.90;;;;;;5094113;28;19930;-92
2023/12/30 05:35:11;;;;;;;;;;;6.30;99.90;;;;;;5077584;28;20333;-90
2023/12/30 05:37:37;;;;;;;;;;;6.30;99.90;;;;;;5117480;27;20003;-90
2023/12/30 05:40:06;;;;;;;;;;;6.30;99.90;;;;;;5085546;28;19982;-90
2023/12/30 05:42:31;;;;;;;;;;;6.30;99.90;;;;;;5141145;27;20488;-88
2023/12/30 05:44:57;;;;;;;;;;;6.20;99.90;;;;;;5086787;28;19974;-87
2023/12/30 05:47:23;;;;;;;;;;;6.20;99.90;;;;;;5096283;28;19935;-90
2023/12/30 05:49:49;;;;;;;;;;;6.20;99.90;;;;;;5084766;28;20002;-89
2023/12/30 05:52:15;;;;;;;;;;;5.20;99.90;;;;;;5087994;27;20334;-89
2023/12/30 05:54:40;;;;;;;;;;;6.20;99.90;;;;;;5127061;27;20408;-90
2023/12/30 05:57:06;;;;;;;;;;;6.20;99.90;;;;;;5084093;28;19930;-88
2023/12/30 05:59:31;;;;;;;;;;;6.20;99.90;;;;;;5052375;28;19966;-91
2023/12/30 06:01:58;;;;;;;;;;;6.20;99.90;;;;;;5071960;28;20486;-89
2023/12/30 06:04:25;;;;;;;;;;;6.30;99.90;;;;;;5070342;28;19931;-90
2023/12/30 06:06:50;;;;;;;;;;;6.20;99.90;;;;;;5061457;28;19931;-93
2023/12/30 06:09:16;;;;;;;;;;;6.20;99.90;;;;;;5078989;28;19919;-91
2023/12/30 06:11:41;;;;;;;;;;;6.20;99.90;;;;;;5061359;28;19924;-91
2023/12/30 06:14:07;;;;;;;;;;;6.20;99.90;;;;;;5060740;28;19924;-90
2023/12/30 06:16:32;;;;;;;;;;;6.20;99.90;;;;;;5071841;28;20010;-90
2023/12/30 06:18:58;;;;;;;;;;;6.30;99.90;;;;;;5060044;28;20320;-90
2023/12/30 06:21:24;;;;;;;;;;;6.20;99.90;;;;;;5100397;27;19920;-90
2023/12/30 06:23:49;;;;;;;;;;;6.20;99.90;;;;;;5060794;28;20254;-89
2023/12/30 06:26:15;;;;;;;;;;;6.20;99.90;;;;;;5122658;27;19927;-90
2023/12/30 06:28:41;;;;;;;;;;;6.20;99.90;;;;;;5068173;28;19924;-90
2023/12/30 06:31:07;;;;;;;;;;;6.20;99.90;;;;;;5083310;28;19927;-89
2023/12/30 06:33:33;;;;;;;;;;;6.10;99.90;;;;;;5076391;28;20414;-90
2023/12/30 06:35:58;;;;;;;;;;;6.10;99.90;;;;;;5088160;28;19930;-89
2023/12/30 06:38:24;;;;;;;;;;;6.10;99.90;;;;;;5059164;28;19928;-90
2023/12/30 06:40:49;;;;;;;;;;;6.10;99.90;;;;;;5058560;27;19967;-90
2023/12/30 06:43:16;;;;;;;;;;;6.10;99.90;;;;;;5078524;28;20434;-90
2023/12/30 06:45:42;;;;;;;;;;;6.20;99.90;;;;;;5089274;28;20337;-89
2023/12/30 06:48:08;;;;;;;;;;;6.20;99.90;;;;;;5085196;28;19935;-89
2023/12/30 06:50:34;;;;;;;;;;;6.20;99.90;;;;;;5068647;28;19920;-90
2023/12/30 06:52:59;;;;;;;;;;;6.20;99.90;;;;;;5077154;28;20318;-90
2023/12/30 06:55:25;;;;;;;;;;;6.10;99.90;;;;;;5078160;28;19986;-89
2023/12/30 06:57:50;;;;;;;;;;;6.10;99.90;;;;;;5062628;28;19939;-90
2023/12/30 07:00:16;;;;;;;;;;;6.10;99.90;;;;;;5082829;28;20022;-90
2023/12/30 07:02:42;;;;;;;;;;;6.10;99.90;;;;;;5046860;28;19920;-90
2023/12/30 07:05:08;;;;;;;;;;;6.10;99.90;;;;;;5108206;28;19931;-89
2023/12/30 07:07:34;;;;;;;;;;;6.00;99.90;;;;;;5085534;28;19921;-90
2023/12/30 07:10:00;;;;;;;;;;;6.00;99.90;;;;;;5034224;28;20035;-91
2023/12/30 07:12:25;;;;;;;;;;;5.90;99.90;;;;;;5062851;28;19924;-88
2023/12/30 07:14:51;;;;;;;;;;;6.00;99.90;;;;;;5065605;28;20025;-90
2023/12/30 07:17:17;;;;;;;;;;;6.00;99.90;;;;;;5053278;28;19931;-88
2023/12/30 07:19:42;;;;;;;;;;;5.20;99.90;;;;;;5044146;28;20553;-90
2023/12/30 07:22:08;;;;;;;;;;;5.90;99.90;;;;;;5049191;28;20007;-89
2023/12/30 07:24:33;;;;;;;;;;;6.00;99.90;;;;;;5078580;28;19931;-91
2023/12/30 07:26:59;;;;;;;;;;;6.00;99.90;;;;;;5081703;28;20018;-89
2023/12/30 07:29:25;;;;;;;;;;;6.00;99.90;;;;;;5070569;28;19924;-90
2023/12/30 07:31:50;;;;;;;;;;;6.00;99.90;;;;;;5067593;28;20565;-87
2023/12/30 07:34:17;;;;;;;;;;;5.90;99.90;;;;;;5054258;28;19981;-90
2023/12/30 07:36:43;;;;;;;;;;;5.90;99.90;;;;;;5062219;28;19970;-89
2023/12/30 07:39:08;;;;;;;;;;;6.00;99.90;;;;;;5053223;28;19931;-91
2023/12/30 07:41:34;;;;;;;;;;;6.00;99.90;;;;;;5045969;28;19920;-90
2023/12/30 07:44:00;;;;;;;;;;;6.00;99.90;;;;;;5042458;28;19932;-90
2023/12/30 07:46:26;;;;;;;;;;;5.90;99.90;;;;;;5078439;28;19967;-90
2023/12/30 07:48:52;;;;;;;;;;;5.90;99.90;;;;;;5080251;28;19969;-86
2023/12/30 07:51:17;;;;;;;;;;;5.90;99.90;;;;;;5036868;28;19964;-91
2023/12/30 07:53:43;;;;;;;;;;;5.90;99.90;;;;;;5076462;28;20014;-92
2023/12/30 07:56:09;;;;;;;;;;;5.90;99.90;;;;;;5064127;28;20022;-91
2023/12/30 07:58:34;;;;;;;;;;;5.90;99.90;;;;;;5091496;28;19935;-92
2023/12/30 08:01:00;;;;;;;;;;;5.90;99.90;;;;;;5088552;28;19927;-91
2023/12/30 08:03:26;;;;;;;;;;;5.90;99.90;;;;;;5078065;28;19981;-90
2023/12/30 08:05:51;;;;;;;;;;;5.90;99.90;;;;;;5112623;28;20298;-90
2023/12/30 08:08:17;;;;;;;;;;;6.00;99.90;;;;;;5100631;27;19927;-87
2023/12/30 08:10:42;;;;;;;;;;;5.90;99.90;;;;;;5104749;28;19931;-88
2023/12/30 08:13:08;;;;;;;;;;;5.90;99.90;;;;;;5116231;28;19923;-87
2023/12/30 08:15:34;;;;;;;;;;;6.00;99.90;;;;;;5100459;28;19932;-88
2023/12/30 08:17:59;;;;;;;;;;;6.00;99.90;;;;;;5089182;28;20261;-88
2023/12/30 08:20:25;;;;;;;;;;;5.90;99.90;;;;;;5098611;28;20321;-88
2023/12/30 08:22:51;;;;;;;;;;;5.90;99.90;;;;;;5090736;28;19920;-86
2023/12/30 08:25:16;;;;;;;;;;;5.90;99.90;;;;;;5118907;27;19971;-87
2023/12/30 08:27:42;;;;;;;;;;;5.90;99.90;;;;;;5110465;27;19923;-87
2023/12/30 08:30:08;;;;;;;;;;;5.90;99.90;;;;;;5107675;27;19927;-87
2023/12/30 08:32:34;;;;;;;;;;;6.00;99.90;;;;;;5126215;27;19924;-86
2023/12/30 08:35:02;;;;;;;;;;;6.00;99.90;;;;;;5119453;27;20240;-87
2023/12/30 08:37:28;;;;;;;;;;;6.10;99.90;;;;;;5112600;27;20535;-87
2023/12/30 08:39:54;;;;;;;;;;;6.10;99.90;;;;;;5105752;27;19924;-86
2023/12/30 08:42:21;;;;;;;;;;;6.10;99.90;;;;;;5086737;28;19923;-86
2023/12/30 08:44:47;;;;;;;;;;;6.10;99.90;;;;;;5115136;27;19927;-87
2023/12/30 08:47:15;;;;;;;;;;;6.10;99.90;;;;;;5123549;27;19927;-86
2023/12/30 08:49:40;;;;;;;;;;;6.10;99.90;;;;;;5089423;28;19920;-87
2023/12/30 08:52:06;;;;;;;;;;;6.10;99.90;;;;;;5099970;27;20318;-87
2023/12/30 08:54:32;;;;;;;;;;;6.00;99.90;;;;;;5090458;28;19924;-86
2023/12/30 08:56:58;;;;;;;;;;;6.10;99.90;;;;;;5066720;28;19928;-85
2023/12/30 08:59:24;;;;;;;;;;;6.10;99.90;;;;;;5074137;28;20011;-86
2023/12/30 09:01:51;;;;;;;;;;;6.30;99.90;;;;;;5066712;28;19930;-87
2023/12/30 09:04:16;;;;;;;;;;;6.20;99.90;;;;;;5056503;28;20330;-88
2023/12/30 09:06:42;;;;;;;;;;;6.30;99.90;;;;;;5084981;28;19923;-87
2023/12/30 09:09:08;;;;;;;;;;;6.20;99.90;;;;;;5069699;28;19935;-88
2023/12/30 09:11:37;;;;;;;;;;;6.30;99.90;;;;;;5064847;28;19924;-88
2023/12/30 09:14:03;;;;;;;;;;;6.30;99.90;;;;;;5083345;28;20262;-91
2023/12/30 09:16:29;;;;;;;;;;;5.00;99.90;;;;;;5105711;28;19963;-91
2023/12/30 09:18:55;;;;;;;;;;;6.30;99.90;;;;;;5064052;28;19923;-90
2023/12/30 09:21:21;;;;;;;;;;;;;;;;;;5079145;28;19920;-91
2023/12/30 09:23:46;;;;;;;;;;;6.40;99.90;;;;;;5099471;28;20377;-92
2023/12/30 09:26:14;;;;;;;;;;;6.40;99.90;;;;;;5056279;28;19988;-91
2023/12/30 09:28:39;;;;;;;;;;;6.40;99.90;;;;;;5071192;28;19924;-91
2023/12/30 09:31:05;;;;;;;;;;;6.40;99.90;;;;;;5072742;28;19928;-91
2023/12/30 09:33:31;;;;;;;;;;;6.40;99.90;;;;;;5068135;28;20026;-91
2023/12/30 09:35:57;;;;;;;;;;;6.40;99.90;;;;;;5055797;28;19920;-90
2023/12/30 09:38:23;;;;;;;;;;;6.50;99.90;;;;;;5070938;28;19920;-92
2023/12/30 09:40:50;;;;;;;;;;;6.50;99.90;;;;;;5070536;28;19939;-93
2023/12/30 09:43:18;;;;;;;;;;;6.50;99.90;;;;;;5069665;28;19931;-92
2023/12/30 09:45:44;;;;;;;;;;;6.50;99.90;;;;;;5073725;28;19919;-90
2023/12/30 09:48:10;;;;;;;;;;;6.50;99.90;;;;;;5058392;28;19920;-91
2023/12/30 09:50:35;;;;;;;;;;;6.60;99.90;;;;;;5059103;28;20199;-90
2023/12/30 09:53:01;;;;;;;;;;;6.60;99.90;;;;;;5096995;27;19938;-92
2023/12/30 09:55:26;;;;;;;;;;;6.60;99.90;;;;;;5108607;27;19920;-91
2023/12/30 09:57:52;;;;;;;;;;;6.60;99.90;;;;;;5114568;27;20462;-89
2023/12/30 10:00:18;;;;;;;;;;;;;;;;;;5125488;27;19919;-92
2023/12/30 10:02:44;;;;;;;;;;;7.00;99.90;;;;;;5100146;28;19955;-91
2023/12/30 10:05:10;;;;;;;;;;;6.80;99.90;;;;;;5127597;27;19978;-90
2023/12/30 10:07:35;;;;;;;;;;;6.90;99.90;;;;;;5103816;27;20492;-90
2023/12/30 10:10:01;;;;;;;;;;;6.90;99.90;;;;;;5109048;27;20333;-93
2023/12/30 10:12:27;;;;;;;;;;;7.00;99.90;;;;;;5100096;27;19931;-90
2023/12/30 10:14:58;;;;;;;;;;;7.10;99.90;;;;;;5108497;27;20549;-91
2023/12/30 10:17:27;;;;;;;;;;;;;;;;;;5092936;28;19919;-93
2023/12/30 10:19:53;;;;;;;;;;;;;;;;;;5133174;27;19919;-92
2023/12/30 10:22:19;;;;;;;;;;;7.20;99.90;;;;;;5121000;27;19989;-91
2023/12/30 10:24:45;;;;;;;;;;;7.30;99.90;;;;;;5108453;27;20368;-92
2023/12/30 10:27:10;;;;;;;;;;;7.30;99.90;;;;;;5131626;27;20056;-94
2023/12/30 10:29:36;;;;;;;;;;;7.30;99.90;;;;;;5086458;27;20018;-95
2023/12/30 10:32:03;;;;;;;;;;;7.40;99.90;;;;;;5092983;27;19923;-93
2023/12/30 10:34:31;;;;;;;;;;;7.40;99.90;;;;;;5090613;27;19980;-91
2023/12/30 10:36:57;;;;;;;;;;;7.40;99.90;;;;;;5117834;27;19923;-92
2023/12/30 10:39:27;;;;;;;;;;;7.40;99.90;;;;;;5101524;28;19920;-93
2023/12/30 10:41:53;;;;;;;;;;;7.40;99.90;;;;;;5089476;28;20223;-92
2023/12/30 10:44:19;;;;;;;;;;;7.40;99.90;;;;;;5107546;27;19930;-90
2023/12/30 10:46:47;;;;;;;;;;;6.80;99.90;;;;;;5097140;28;20192;-93
2023/12/30 10:49:14;;;;;;;;;;;7.40;99.90;;;;;;5085666;27;19929;-91
2023/12/30 10:51:40;;;;;;;;;;;7.50;99.90;;;;;;5120452;27;19966;-91
2023/12/30 10:54:07;;;;;;;;;;;7.50;99.90;;;;;;5113636;27;19923;-87
2023/12/30 10:56:47;;;;;;;;;;;7.50;99.90;;;;;;5116296;27;19919;-90
2023/12/30 10:59:13;;;;;;;;;;;7.60;99.90;;;;;;5135072;27;19930;-91
2023/12/30 11:01:39;;;;;;;;;;;7.60;99.90;;;;;;5117282;27;19919;-89
2023/12/30 11:04:11;;;;;;;;;;;7.60;99.90;;;;;;5118152;27;19977;-89
2023/12/30 11:06:52;;;;;;;;;;;7.70;99.90;;;;;;5100736;28;20402;-91
2023/12/30 11:09:21;;;;;;;;;;;7.80;99.90;;;;;;5127233;27;19966;-90
2023/12/30 11:11:51;;;;;;;;;;;7.90;99.90;;;;;;5119941;27;19934;-91
2023/12/30 11:14:17;;;;;;;;;;;7.90;99.90;;;;;;5086420;27;19923;-91
2023/12/30 11:16:46;;;;;;;;;;;8.00;99.90;;;;;;5101535;27;19952;-91
2023/12/30 11:19:35;;;;;;;;;;;8.00;99.90;;;;;;5102581;27;19943;-90
2023/12/30 11:22:02;;;;;;;;;;;8.00;99.90;;;;;;5128982;27;20260;-88
2023/12/30 11:24:30;;;;;;;;;;;8.10;99.90;;;;;;5124381;27;19919;-90
2023/12/30 11:26:56;;;;;;;;;;;8.00;99.90;;;;;;5101926;28;19931;-93
2023/12/30 11:29:26;;;;;;;;;;;8.10;99.90;;;;;;5105120;27;19920;-93
2023/12/30 11:31:52;;;;;;;;;;;8.10;99.90;;;;;;5105692;27;19999;-92
2023/12/30 11:34:19;;;;;;;;;;;8.10;99.90;;;;;;5113439;27;20006;-90
2023/12/30 11:36:49;;;;;;;;;;;8.20;99.90;;;;;;5092555;27;19923;-91
2023/12/30 11:39:38;;;;;;;;;;;8.20;99.90;;;;;;5125308;27;20100;-92
2023/12/30 11:42:04;;;;;;;;;;;7.10;99.90;;;;;;5093841;27;19951;-92
2023/12/30 11:44:30;;;;;;;;;;;8.30;99.90;;;;;;5109675;27;19923;-88
2023/12/30 11:46:57;;;;;;;;;;;8.40;99.90;;;;;;5095562;27;19931;-92
2023/12/30 11:49:23;;;;;;;;;;;8.40;99.90;;;;;;5122087;27;19919;-89
2023/12/30 11:51:49;;;;;;;;;;;8.40;99.90;;;;;;5120433;27;19974;-93
2023/12/30 11:54:15;;;;;;;;;;;8.50;99.90;;;;;;5125469;27;19939;-92
2023/12/30 11:56:42;;;;;;;;;;;8.50;99.90;;;;;;5106227;28;20007;-91
2023/12/30 11:59:07;;;;;;;;;;;8.50;99.90;;;;;;5083405;28;20363;-88
2023/12/30 12:01:33;;;;;;;;;;;8.50;99.90;;;;;;5118113;28;19919;-88
2023/12/30 12:03:59;;;;;;;;;;;8.50;99.90;;;;;;5073288;28;19945;-88
2023/12/30 12:06:24;;;;;;;;;;;8.50;99.90;;;;;;5075238;28;20156;-90
2023/12/30 12:08:50;;;;;;;;;;;8.70;99.90;;;;;;5062945;28;19997;-90
2023/12/30 12:11:16;;;;;;;;;;;8.50;99.90;;;;;;5069301;28;20010;-89
2023/12/30 12:13:42;;;;;;;;;;;8.50;99.90;;;;;;5082956;28;19920;-91
2023/12/30 12:16:08;;;;;;;;;;;8.50;99.90;;;;;;5073287;28;19948;-91
2023/12/30 12:18:36;;;;;;;;;;;7.60;99.90;;;;;;5083141;28;19924;-89
2023/12/30 12:21:10;;;;;;;;;;;8.60;99.90;;;;;;5071574;28;20262;-90
2023/12/30 12:23:36;;;;;;;;;;;8.60;99.90;;;;;;5070657;28;20018;-91
2023/12/30 12:26:01;;;;;;;;;;;8.60;99.90;;;;;;5085775;28;19990;-86
2023/12/30 12:28:27;;;;;;;;;;;8.60;99.90;;;;;;5068367;28;20033;-90
2023/12/30 12:30:53;;;;;;;;;;;8.60;99.90;;;;;;5081131;28;19928;-87
2023/12/30 12:33:19;;;;;;;;;;;8.50;99.90;;;;;;5081711;28;20258;-90
2023/12/30 12:35:45;;;;;;;;;;;8.40;99.90;;;;;;5072208;28;19939;-89
2023/12/30 12:38:10;;;;;;;;;;;8.30;99.90;;;;;;5094091;28;20063;-92
2023/12/30 12:40:38;;;;;;;;;;;8.20;99.90;;;;;;5062660;28;19930;-92
2023/12/30 12:43:03;;;;;;;;;;;8.10;99.90;;;;;;5088735;28;19935;-93
2023/12/30 12:45:29;;;;;;;;;;;8.10;99.90;;;;;;5067991;28;19920;-92
2023/12/30 12:47:55;;;;;;;;;;;8.10;99.90;;;;;;5090623;28;19932;-95
2023/12/30 12:50:21;;;;;;;;;;;8.10;99.90;;;;;;5068350;28;19923;-90
2023/12/30 12:52:46;;;;;;;;;;;8.10;99.90;;;;;;5052425;28;19932;-96
2023/12/30 12:55:12;;;;;;;;;;;8.10;99.90;;;;;;5050241;28;19959;-95
2023/12/30 12:57:38;;;;;;;;;;;8.00;99.90;;;;;;5101950;28;19923;-96
2023/12/30 13:00:08;;;;;;;;;;;8.00;99.90;;;;;;5122984;28;19938;-96
2023/12/30 13:02:34;;;;;;;;;;;8.10;99.90;;;;;;5072967;28;19931;-95
2023/12/30 13:05:01;;;;;;;;;;;8.10;99.90;;;;;;5090358;28;20370;-95
2023/12/30 13:07:26;;;;;;;;;;;8.10;99.90;;;;;;5116931;28;19983;-92
2023/12/30 13:09:59;;;;;;;;;;;8.10;99.90;;;;;;5089139;28;19920;-94
2023/12/30 13:12:25;;;;;;;;;;;8.20;99.90;;;;;;5081542;27;19935;-88
2023/12/30 13:14:58;;;;;;;;;;;8.20;99.90;;;;;;5093262;27;20234;-88
2023/12/30 13:17:24;;;;;;;;;;;8.20;99.90;;;;;;5124391;27;19977;-87
2023/12/30 13:19:50;;;;;;;;;;;8.20;99.90;;;;;;5137053;27;20506;-88
2023/12/30 13:22:16;;;;;;;;;;;8.20;99.90;;;;;;5090402;28;19931;-87
2023/12/30 13:24:44;;;;;;;;;;;8.20;99.90;;;;;;5107207;28;19920;-88
2023/12/30 13:27:10;;;;;;;;;;;8.30;99.90;;;;;;5129337;27;19919;-87
2023/12/30 13:29:36;;;;;;;;;;;8.20;99.90;;;;;;5142809;27;19931;-87
2023/12/30 13:32:02;;;;;;;;;;;8.30;99.90;;;;;;5078532;27;20386;-87
2023/12/30 13:34:31;;;;;;;;;;;8.30;99.90;;;;;;5113109;27;19931;-88
2023/12/30 13:37:00;;;;;;;;;;;8.30;99.90;;;;;;5108218;27;20010;-89
2023/12/30 13:39:26;;;;;;;;;;;8.30;99.90;;;;;;5093758;27;19938;-87
2023/12/30 13:41:55;;;;;;;;;;;8.30;99.90;;;;;;5094953;27;19920;-85
2023/12/30 13:44:21;;;;;;;;;;;8.40;99.90;;;;;;5104248;27;20463;-86
2023/12/30 13:51:41;;;;;;;;;;;8.40;99.90;;;;;;5142815;27;20057;-86
2023/12/30 13:54:08;;;;;;;;;;;8.40;99.90;;;;;;5087527;28;19923;-85
2023/12/30 13:56:42;;;;;;;;;;;8.50;99.90;;;;;;5065491;28;19924;-84
2023/12/30 13:59:11;;;;;;;;;;;8.50;99.90;;;;;;5105388;28;19930;-85
2023/12/30 14:01:38;;;;;;;;;;;8.50;99.90;;;;;;5086745;28;20367;-85
2023/12/30 14:04:06;;;;;;;;;;;8.60;99.90;;;;;;5079342;28;20266;-85
2023/12/30 14:06:36;;;;;;;;;;;8.00;99.90;;;;;;5061512;28;20242;-84
2023/12/30 14:11:55;;;;;;;;;;;8.60;99.90;;;;;;5104878;28;19992;-86
2023/12/30 14:14:21;;;;;;;;;;;8.60;99.90;;;;;;5089974;28;19920;-86
2023/12/30 14:16:47;;;;;;;;;;;8.40;99.90;;;;;;5073078;28;19930;-86
2023/12/30 14:19:16;;;;;;;;;;;8.60;99.90;;;;;;5066019;28;19924;-86
2023/12/30 14:21:42;;;;;;;;;;;8.50;99.90;;;;;;5072892;28;20392;-85
2023/12/30 14:24:08;;;;;;;;;;;8.60;99.90;;;;;;5080943;28;20006;-86
2023/12/30 14:26:34;;;;;;;;;;;8.50;99.90;;;;;;5071088;28;19924;-86
2023/12/30 14:29:00;;;;;;;;;;;8.50;99.90;;;;;;5085246;28;20209;-86
2023/12/30 14:31:25;;;;;;;;;;;8.50;99.90;;;;;;5086201;28;19927;-85
2023/12/30 14:33:51;;;;;;;;;;;8.50;99.90;;;;;;5074995;28;19927;-85